createdAt,value
2023-03-19T00:01:13.287Z,13.17
2023-03-19T00:05:15.396Z,13.19
2023-03-19T00:09:17.944Z,13.21
2023-03-19T00:13:20.061Z,13.24
2023-03-19T00:17:21.872Z,13.24
2023-03-19T00:21:25.881Z,13.19
2023-03-19T00:25:27.879Z,13.10
2023-03-19T00:29:29.504Z,13.06
2023-03-19T00:33:31.373Z,13.04
2023-03-19T00:37:33.548Z,12.99
2023-03-19T00:41:35.255Z,12.91
2023-03-19T00:45:36.936Z,12.85
2023-03-19T00:49:38.473Z,12.87
2023-03-19T00:53:42.318Z,12.81
2023-03-19T00:57:44.198Z,12.80
2023-03-19T01:01:45.785Z,12.80
2023-03-19T01:09:50.934Z,12.76
2023-03-19T01:13:52.454Z,12.76
2023-03-19T01:17:54.034Z,12.67
2023-03-19T01:21:55.849Z,12.69
2023-03-19T01:25:58.428Z,12.62
2023-03-19T01:30:02.105Z,12.54
2023-03-19T01:34:22.985Z,12.55
2023-03-19T01:38:29.376Z,12.58
2023-03-19T01:43:12.481Z,12.59
2023-03-19T01:47:43.504Z,12.61
2023-03-19T01:51:47.169Z,12.56
2023-03-19T01:56:19.736Z,12.41
2023-03-19T02:00:47.782Z,12.33
2023-03-19T02:04:53.690Z,12.21
2023-03-19T02:08:56.585Z,12.23
2023-03-19T02:12:58.586Z,12.22
2023-03-19T02:17:00.713Z,12.16
2023-03-19T02:21:09.814Z,12.15
2023-03-19T02:25:17.196Z,12.13
2023-03-19T02:29:20.996Z,12.18
2023-03-19T02:33:23.351Z,12.12
2023-03-19T02:37:32.861Z,12.12
2023-03-19T02:41:37.417Z,12.13
2023-03-19T02:45:39.622Z,12.18
2023-03-19T02:49:41.331Z,12.18
2023-03-19T02:53:42.840Z,12.19
2023-03-19T02:57:46.274Z,12.18
2023-03-19T03:01:47.960Z,12.26
2023-03-19T03:05:49.629Z,12.31
2023-03-19T03:09:51.431Z,12.33
2023-03-19T03:13:52.976Z,12.36
2023-03-19T03:17:56.327Z,12.33
2023-03-19T03:21:57.946Z,12.31
2023-03-19T03:25:59.499Z,12.36
2023-03-19T03:30:01.347Z,12.37
2023-03-19T03:34:02.930Z,12.36
2023-03-19T03:38:06.675Z,12.37
2023-03-19T03:42:40.168Z,12.34
2023-03-19T03:46:43.437Z,12.34
2023-03-19T03:50:45.815Z,12.36
2023-03-19T03:54:51.610Z,12.36
2023-03-19T03:58:53.297Z,12.36
2023-03-19T04:02:54.930Z,12.37
2023-03-19T04:06:56.660Z,12.34
2023-03-19T04:11:14.432Z,12.33
2023-03-19T04:15:16.784Z,12.34
2023-03-19T04:19:20.964Z,12.34
2023-03-19T04:23:22.653Z,12.33
2023-03-19T04:27:24.199Z,12.33
2023-03-19T04:31:25.948Z,12.36
2023-03-19T04:35:27.818Z,12.37
2023-03-19T04:39:29.399Z,12.37
2023-03-19T04:43:32.719Z,12.38
2023-03-19T04:47:37.032Z,12.41
2023-03-19T04:51:39.238Z,12.41
2023-03-19T04:55:42.376Z,12.38
2023-03-19T04:59:50.657Z,12.37
2023-03-19T05:03:54.354Z,12.37
2023-03-19T05:07:57.368Z,12.36
2023-03-19T05:11:59.816Z,12.37
2023-03-19T05:16:02.585Z,12.38
2023-03-19T05:20:06.205Z,12.38
2023-03-19T05:24:10.313Z,12.38
2023-03-19T05:28:13.541Z,12.40
2023-03-19T05:32:16.055Z,12.40
2023-03-19T05:36:19.046Z,12.40
2023-03-19T05:40:41.847Z,12.37
2023-03-19T05:44:55.412Z,12.40
2023-03-19T05:49:00.700Z,12.38
2023-03-19T05:53:03.335Z,12.37
2023-03-19T05:57:07.606Z,12.36
2023-03-19T06:01:09.289Z,12.40
2023-03-19T06:05:11.634Z,12.38
2023-03-19T06:09:14.043Z,12.37
2023-03-19T06:13:18.139Z,12.38
2023-03-19T06:17:33.344Z,12.37
2023-03-19T06:21:41.445Z,12.34
2023-03-19T06:25:43.237Z,12.34
2023-03-19T06:29:46.624Z,12.30
2023-03-19T06:33:55.653Z,12.33
2023-03-19T06:38:00.675Z,12.36
2023-03-19T06:42:02.304Z,12.37
2023-03-19T06:46:04.975Z,12.43
2023-03-19T06:50:07.024Z,12.55
2023-03-19T06:54:08.776Z,12.62
2023-03-19T06:58:10.687Z,12.71
2023-03-19T07:02:12.540Z,12.76
2023-03-19T07:06:14.124Z,12.85
2023-03-19T07:10:19.268Z,12.87
2023-03-19T07:14:20.862Z,12.85
2023-03-19T07:18:22.350Z,12.84
2023-03-19T07:22:23.962Z,12.79
2023-03-19T07:26:25.747Z,12.76
2023-03-19T07:30:27.335Z,12.73
2023-03-19T07:34:28.875Z,12.73
2023-03-19T07:38:30.526Z,12.77
2023-03-19T07:42:32.145Z,12.80
2023-03-19T07:46:33.801Z,12.88
2023-03-19T07:50:35.869Z,12.94
2023-03-19T07:54:37.630Z,12.95
2023-03-19T07:58:39.141Z,13.01
2023-03-19T08:02:42.751Z,13.17
2023-03-19T08:06:44.545Z,13.29
2023-03-19T08:10:47.901Z,13.48
2023-03-19T08:14:49.466Z,13.68
2023-03-19T08:18:52.613Z,13.88
2023-03-19T08:22:54.288Z,13.98
2023-03-19T08:26:56.305Z,14.08
2023-03-19T08:30:58.001Z,14.20
2023-03-19T08:35:00.366Z,14.36
2023-03-19T08:39:02.008Z,14.44
2023-03-19T08:43:04.051Z,14.60
2023-03-19T08:47:05.884Z,14.79
2023-03-19T08:51:07.445Z,14.95
2023-03-19T08:55:09.830Z,15.04
2023-03-19T08:59:11.421Z,15.22
2023-03-19T09:03:13.428Z,15.37
2023-03-19T09:07:18.236Z,15.41
2023-03-19T09:11:19.842Z,15.48
2023-03-19T09:15:21.436Z,15.49
2023-03-19T09:19:23.687Z,15.46
2023-03-19T09:23:25.370Z,15.49
2023-03-19T09:27:27.280Z,15.53
2023-03-19T09:31:29.869Z,15.52
2023-03-19T09:35:32.827Z,15.58
2023-03-19T09:39:34.946Z,15.73
2023-03-19T09:44:05.242Z,15.93
2023-03-19T09:48:14.465Z,16.16
2023-03-19T09:52:41.390Z,16.11
2023-03-19T09:56:43.024Z,16.07
2023-03-19T10:00:51.263Z,15.91
2023-03-19T10:05:11.270Z,15.86
2023-03-19T10:09:38.973Z,15.81
2023-03-19T10:14:02.157Z,15.89
2023-03-19T10:18:06.012Z,16.10
2023-03-19T10:22:16.727Z,16.32
2023-03-19T10:26:20.494Z,16.47
2023-03-19T10:30:22.118Z,16.52
2023-03-19T10:34:31.203Z,16.59
2023-03-19T10:38:33.583Z,16.59
2023-03-19T10:42:53.830Z,16.63
2023-03-19T10:47:00.300Z,16.70
2023-03-19T10:51:05.549Z,16.82
2023-03-19T10:55:14.365Z,17.03
2023-03-19T10:59:31.010Z,17.20
2023-03-19T11:03:49.816Z,17.43
2023-03-19T11:07:56.839Z,17.57
2023-03-19T11:12:16.970Z,17.57
2023-03-19T11:16:18.854Z,17.65
2023-03-19T11:20:32.494Z,17.71
2023-03-19T11:24:38.434Z,17.80
2023-03-19T11:28:42.794Z,17.86
2023-03-19T11:33:18.147Z,17.81
2023-03-19T11:37:22.818Z,17.73
2023-03-19T11:41:37.157Z,17.63
2023-03-19T11:46:06.792Z,17.54
2023-03-19T11:50:27.086Z,17.55
2023-03-19T11:54:47.541Z,17.53
2023-03-19T11:58:52.157Z,17.73
2023-03-19T12:03:16.239Z,17.81
2023-03-19T12:07:56.292Z,17.80
2023-03-19T12:12:26.621Z,17.77
2023-03-19T12:16:45.779Z,17.68
2023-03-19T12:21:15.830Z,17.66
2023-03-19T12:25:37.947Z,17.60
2023-03-19T12:29:53.317Z,17.49
2023-03-19T12:34:16.949Z,17.42
2023-03-19T12:38:51.641Z,17.30
2023-03-19T12:42:58.041Z,17.25
2023-03-19T12:47:05.911Z,17.22
2023-03-19T12:51:11.813Z,17.27
2023-03-19T12:55:19.215Z,17.25
2023-03-19T12:59:29.892Z,17.14
2023-03-19T13:04:03.315Z,16.87
2023-03-19T13:08:20.594Z,16.70
2023-03-19T13:12:30.760Z,16.66
2023-03-19T13:16:58.916Z,16.54
2023-03-19T13:21:19.020Z,16.45
2023-03-19T13:25:25.612Z,16.44
2023-03-19T13:29:30.260Z,16.42
2023-03-19T13:33:35.062Z,16.32
2023-03-19T13:37:42.424Z,16.23
2023-03-19T13:41:43.965Z,16.17
2023-03-19T13:45:45.692Z,16.18
2023-03-19T13:50:10.981Z,16.27
2023-03-19T13:54:12.826Z,16.29
2023-03-19T13:58:48.303Z,16.37
2023-03-19T14:02:53.601Z,16.50
2023-03-19T14:07:16.584Z,16.42
2023-03-19T14:11:28.773Z,16.47
2023-03-19T14:15:30.901Z,16.55
2023-03-19T14:19:41.094Z,16.62
2023-03-19T14:23:53.043Z,16.78
2023-03-19T14:27:59.283Z,16.95
2023-03-19T14:32:08.603Z,17.02
2023-03-19T14:36:16.398Z,17.09
2023-03-19T14:40:37.274Z,17.15
2023-03-19T14:45:06.616Z,17.05
2023-03-19T14:49:34.805Z,16.85
2023-03-19T14:53:46.356Z,16.69
2023-03-19T14:57:48.195Z,16.78
2023-03-19T15:01:52.570Z,16.95
2023-03-19T15:05:58.835Z,17.32
2023-03-19T15:10:06.316Z,17.60
2023-03-19T15:14:28.359Z,17.91
2023-03-19T15:18:29.967Z,18.04
2023-03-19T15:22:34.324Z,18.14
2023-03-19T15:26:37.408Z,18.53
2023-03-19T15:30:52.224Z,18.71
2023-03-19T15:34:57.026Z,18.50
2023-03-19T15:39:04.076Z,18.71
2023-03-19T15:43:06.022Z,18.89
2023-03-19T15:47:13.830Z,19.06
2023-03-19T15:51:17.667Z,18.89
2023-03-19T15:55:21.305Z,18.71
2023-03-19T15:59:26.583Z,18.36
2023-03-19T16:03:37.822Z,18.34
2023-03-19T16:07:43.600Z,18.02
2023-03-19T16:11:46.325Z,17.79
2023-03-19T16:15:56.933Z,17.53
2023-03-19T16:20:02.322Z,17.25
2023-03-19T16:24:31.591Z,17.03
2023-03-19T16:28:46.593Z,16.77
2023-03-19T16:33:02.563Z,16.57
2023-03-19T16:37:24.099Z,16.45
2023-03-19T16:41:33.832Z,16.40
2023-03-19T16:45:35.785Z,16.27
2023-03-19T16:49:38.217Z,16.17
2023-03-19T16:53:40.422Z,16.13
2023-03-19T16:57:42.156Z,16.03
2023-03-19T17:01:43.756Z,15.91
2023-03-19T17:05:47.185Z,15.76
2023-03-19T17:09:48.706Z,15.56
2023-03-19T17:13:50.658Z,15.46
2023-03-19T17:17:52.378Z,15.34
2023-03-19T17:21:59.275Z,15.23
2023-03-19T17:26:03.049Z,15.16
2023-03-19T17:30:05.125Z,15.05
2023-03-19T17:34:12.467Z,15.03
2023-03-19T17:38:17.371Z,14.94
2023-03-19T17:42:22.852Z,14.82
2023-03-19T17:46:27.359Z,14.67
2023-03-19T17:50:31.360Z,14.59
2023-03-19T17:54:32.929Z,14.54
2023-03-19T17:58:35.165Z,14.53
2023-03-19T18:02:37.793Z,14.44
2023-03-19T18:06:44.362Z,14.42
2023-03-19T18:10:46.375Z,14.30
2023-03-19T18:14:47.997Z,14.20
2023-03-19T18:18:50.902Z,14.13
2023-03-19T18:22:52.560Z,14.09
2023-03-19T18:26:54.165Z,14.06
2023-03-19T18:30:55.934Z,14.01
2023-03-19T18:34:57.640Z,13.96
2023-03-19T18:38:59.642Z,13.88
2023-03-19T18:43:01.824Z,13.83
2023-03-19T18:47:03.488Z,13.76
2023-03-19T18:51:05.201Z,13.73
2023-03-19T18:55:06.977Z,13.69
2023-03-19T18:59:21.554Z,13.65
2023-03-19T19:03:28.490Z,13.55
2023-03-19T19:07:30.245Z,13.46
2023-03-19T19:11:31.760Z,13.35
2023-03-19T19:15:35.525Z,13.29
2023-03-19T19:19:37.144Z,13.24
2023-03-19T19:23:38.916Z,13.17
2023-03-19T19:27:40.623Z,13.12
2023-03-19T19:31:42.318Z,13.06
2023-03-19T19:35:44.021Z,13.01
2023-03-19T19:39:46.409Z,12.92
2023-03-19T19:43:49.655Z,12.87
2023-03-19T19:47:51.264Z,12.79
2023-03-19T19:51:52.838Z,12.77
2023-03-19T19:55:54.453Z,12.74
2023-03-19T19:59:56.226Z,12.70
2023-03-19T20:03:58.519Z,12.73
2023-03-19T20:08:01.504Z,12.66
2023-03-19T20:12:03.735Z,12.62
2023-03-19T20:16:05.596Z,12.56
2023-03-19T20:20:15.848Z,12.52
2023-03-19T20:24:18.403Z,12.48
2023-03-19T20:28:26.250Z,12.44
2023-03-19T20:32:38.397Z,12.44
2023-03-19T20:36:40.003Z,12.37
2023-03-19T20:40:52.056Z,12.25
2023-03-19T20:44:58.226Z,12.15
2023-03-19T20:49:01.377Z,12.08
2023-03-19T20:53:03.656Z,12.07
2023-03-19T20:57:05.756Z,12.03
2023-03-19T21:01:07.360Z,12.04
2023-03-19T21:05:13.239Z,11.98
2023-03-19T21:09:14.789Z,11.98
2023-03-19T21:13:18.124Z,11.94
2023-03-19T21:17:20.026Z,11.94
2023-03-19T21:21:36.293Z,11.90
2023-03-19T21:25:38.040Z,11.84
2023-03-19T21:29:39.772Z,11.75
2023-03-19T21:33:43.287Z,11.56
2023-03-19T21:37:46.018Z,11.53
2023-03-19T21:41:48.202Z,11.51
2023-03-19T21:45:51.420Z,11.53
2023-03-19T21:49:53.014Z,11.59
2023-03-19T21:53:54.903Z,11.66
2023-03-19T21:57:57.487Z,11.74
2023-03-19T22:01:59.438Z,11.78
2023-03-19T22:06:00.993Z,11.79
2023-03-19T22:10:02.603Z,11.87
2023-03-19T22:14:26.778Z,11.94
2023-03-19T22:18:28.654Z,11.96
2023-03-19T22:22:32.252Z,11.98
2023-03-19T22:26:36.248Z,11.98
2023-03-19T22:30:39.159Z,12.00
2023-03-19T22:34:40.859Z,11.98
2023-03-19T22:38:46.764Z,11.97
2023-03-19T22:42:49.050Z,12.00
2023-03-19T22:46:50.644Z,11.98
2023-03-19T22:50:52.275Z,12.00
2023-03-19T22:54:53.919Z,12.00
2023-03-19T22:58:56.561Z,12.03
2023-03-19T23:03:00.698Z,12.04
2023-03-19T23:07:02.235Z,12.01
2023-03-19T23:11:03.834Z,11.96
2023-03-19T23:15:06.046Z,11.97
2023-03-19T23:19:14.709Z,11.94
2023-03-19T23:23:17.639Z,11.94
2023-03-19T23:27:26.344Z,11.90
2023-03-19T23:31:28.622Z,11.94
2023-03-19T23:35:31.134Z,11.93
2023-03-19T23:39:33.398Z,11.87
2023-03-19T23:43:35.318Z,11.88
2023-03-19T23:47:36.894Z,11.87
2023-03-19T23:51:38.537Z,11.87
2023-03-19T23:55:40.276Z,11.84
2023-03-19T23:59:43.814Z,11.85
